createdAt,value
2019-04-13T00:00:14.335Z,2.67
2019-04-13T00:01:14.395Z,2.53
2019-04-13T00:02:14.314Z,2.56
2019-04-13T00:03:14.317Z,2.63
2019-04-13T00:04:14.279Z,2.55
2019-04-13T00:05:14.269Z,2.66
2019-04-13T00:06:14.260Z,2.70
2019-04-13T00:07:14.278Z,2.58
2019-04-13T00:08:14.233Z,2.70
2019-04-13T00:09:14.228Z,2.73
2019-04-13T00:10:14.213Z,2.58
2019-04-13T00:11:14.203Z,2.52
2019-04-13T00:12:14.214Z,2.56
2019-04-13T00:13:14.177Z,2.59
2019-04-13T00:14:14.165Z,2.59
2019-04-13T00:15:14.158Z,2.67
2019-04-13T00:16:14.145Z,2.64
2019-04-13T00:17:14.146Z,2.64
2019-04-13T00:18:14.147Z,2.61
2019-04-13T00:19:14.107Z,2.58
2019-04-13T00:20:14.100Z,2.49
2019-04-13T00:21:14.086Z,2.48
2019-04-13T00:22:14.074Z,2.49
2019-04-13T00:23:14.086Z,2.45
2019-04-13T00:24:14.052Z,2.52
2019-04-13T00:25:14.040Z,2.38
2019-04-13T00:26:14.029Z,2.44
2019-04-13T00:27:14.015Z,2.31
2019-04-13T00:28:14.028Z,2.40
2019-04-13T00:29:13.991Z,2.45
2019-04-13T00:30:13.996Z,2.37
2019-04-13T00:31:13.981Z,2.44
2019-04-13T00:32:13.959Z,2.45
2019-04-13T00:33:13.948Z,2.52
2019-04-13T00:34:13.963Z,2.56
2019-04-13T00:35:13.925Z,2.49
2019-04-13T00:36:13.917Z,2.66
2019-04-13T00:37:13.902Z,2.61
2019-04-13T00:38:13.892Z,2.53
2019-04-13T00:39:13.922Z,2.56
2019-04-13T00:40:13.868Z,2.55
2019-04-13T00:41:13.854Z,2.58
2019-04-13T00:42:13.846Z,2.66
2019-04-13T00:43:13.836Z,2.55
2019-04-13T00:44:13.849Z,2.56
2019-04-13T00:45:13.828Z,2.58
2019-04-13T00:46:13.807Z,2.51
2019-04-13T00:47:13.794Z,2.56
2019-04-13T00:48:13.781Z,2.52
2019-04-13T00:49:13.793Z,2.53
2019-04-13T00:50:13.762Z,2.49
2019-04-13T00:51:13.742Z,2.40
2019-04-13T00:52:13.728Z,2.33
2019-04-13T00:53:13.718Z,2.49
2019-04-13T00:54:13.745Z,2.35
2019-04-13T00:55:13.701Z,2.31
2019-04-13T00:56:13.682Z,2.44
2019-04-13T00:57:13.673Z,2.41
2019-04-13T00:58:13.658Z,2.35
2019-04-13T00:59:13.646Z,2.38
2019-04-13T01:00:13.660Z,2.40
2019-04-13T01:01:13.638Z,2.38
2019-04-13T01:02:13.638Z,2.31
2019-04-13T01:03:13.614Z,2.31
2019-04-13T01:04:13.592Z,2.35
2019-04-13T01:05:13.622Z,2.40
2019-04-13T01:06:13.592Z,2.46
2019-04-13T01:07:13.570Z,2.37
2019-04-13T01:08:13.548Z,2.44
2019-04-13T01:09:13.532Z,2.44
2019-04-13T01:10:13.547Z,2.35
2019-04-13T01:11:13.509Z,2.48
2019-04-13T01:12:13.523Z,2.41
2019-04-13T01:13:13.524Z,2.52
2019-04-13T01:14:13.474Z,2.34
2019-04-13T01:15:13.501Z,2.33
2019-04-13T01:16:13.474Z,2.46
2019-04-13T01:17:13.469Z,2.51
2019-04-13T01:18:13.439Z,2.48
2019-04-13T01:19:13.428Z,2.51
2019-04-13T01:20:13.406Z,2.45
2019-04-13T01:21:13.426Z,2.41
2019-04-13T01:22:13.389Z,2.46
2019-04-13T01:23:13.390Z,2.48
2019-04-13T01:24:13.364Z,2.48
2019-04-13T01:25:13.353Z,2.48
2019-04-13T01:26:13.365Z,2.55
2019-04-13T01:27:13.333Z,2.58
2019-04-13T01:28:13.320Z,2.66
2019-04-13T01:29:13.315Z,2.58
2019-04-13T01:30:13.297Z,2.56
2019-04-13T01:31:13.299Z,2.56
2019-04-13T01:32:13.270Z,2.66
2019-04-13T01:33:13.261Z,2.66
2019-04-13T01:34:13.247Z,2.61
2019-04-13T01:35:13.232Z,2.67
2019-04-13T01:36:13.275Z,2.58
2019-04-13T01:37:13.209Z,2.63
2019-04-13T01:38:13.199Z,2.64
2019-04-13T01:39:13.193Z,2.64
2019-04-13T01:40:13.183Z,2.61
2019-04-13T01:41:13.165Z,2.69
2019-04-13T01:42:13.183Z,2.66
2019-04-13T01:43:13.143Z,2.67
2019-04-13T01:44:13.129Z,2.73
2019-04-13T01:45:13.123Z,2.64
2019-04-13T01:46:13.109Z,2.71
2019-04-13T01:47:13.112Z,2.73
2019-04-13T01:48:13.084Z,2.66
2019-04-13T01:49:13.072Z,2.58
2019-04-13T01:50:13.060Z,2.70
2019-04-13T01:51:13.053Z,2.53
2019-04-13T01:52:13.071Z,2.63
2019-04-13T01:53:13.027Z,2.66
2019-04-13T01:54:13.021Z,2.63
2019-04-13T01:55:13.005Z,2.63
2019-04-13T01:56:12.996Z,2.64
2019-04-13T01:57:13.005Z,2.61
2019-04-13T01:58:12.970Z,2.63
2019-04-13T01:59:12.956Z,2.58
2019-04-13T02:00:12.948Z,2.56
2019-04-13T02:01:12.933Z,2.61
2019-04-13T02:02:12.932Z,2.66
2019-04-13T02:03:12.934Z,2.66
2019-04-13T02:04:12.898Z,2.69
2019-04-13T02:05:18.221Z,2.63
2019-04-13T02:06:13.879Z,2.85
2019-04-13T02:07:12.866Z,2.74
2019-04-13T02:08:12.878Z,2.71
2019-04-13T02:09:12.842Z,2.81
2019-04-13T02:10:12.831Z,2.77
2019-04-13T02:11:12.822Z,2.77
2019-04-13T02:12:12.808Z,2.74
2019-04-13T02:13:12.853Z,2.87
2019-04-13T02:14:12.785Z,2.84
2019-04-13T02:15:12.775Z,2.81
2019-04-13T02:16:12.761Z,2.84
2019-04-13T02:17:12.749Z,2.79
2019-04-13T02:18:12.745Z,2.91
2019-04-13T02:19:12.748Z,2.84
2019-04-13T02:20:12.721Z,2.88
2019-04-13T02:21:12.704Z,2.91
2019-04-13T02:22:12.695Z,2.87
2019-04-13T02:23:12.694Z,2.88
2019-04-13T02:24:12.693Z,2.87
2019-04-13T02:25:12.658Z,2.89
2019-04-13T02:26:12.646Z,2.91
2019-04-13T02:27:12.633Z,2.77
2019-04-13T02:28:12.622Z,2.91
2019-04-13T02:29:12.632Z,2.91
2019-04-13T02:30:12.605Z,2.91
2019-04-13T02:31:12.679Z,2.85
2019-04-13T02:32:12.585Z,2.84
2019-04-13T02:33:12.568Z,2.74
2019-04-13T02:34:12.574Z,2.98
2019-04-13T02:35:12.543Z,2.88
2019-04-13T02:36:12.535Z,2.95
2019-04-13T02:37:12.518Z,2.98
2019-04-13T02:38:12.509Z,2.87
2019-04-13T02:39:12.517Z,2.92
2019-04-13T02:40:12.487Z,2.84
2019-04-13T02:41:12.476Z,2.85
2019-04-13T02:42:12.464Z,2.87
2019-04-13T02:43:12.451Z,2.76
2019-04-13T02:44:12.463Z,2.74
2019-04-13T02:45:12.429Z,2.59
2019-04-13T02:46:12.431Z,2.63
2019-04-13T02:47:12.418Z,2.56
2019-04-13T02:48:12.414Z,2.49
2019-04-13T02:49:12.398Z,2.35
2019-04-13T02:50:12.405Z,2.45
2019-04-13T02:51:12.365Z,2.34
2019-04-13T02:52:12.348Z,2.26
2019-04-13T02:53:12.351Z,2.22
2019-04-13T02:54:12.327Z,2.28
2019-04-13T02:55:12.362Z,2.20
2019-04-13T02:56:12.316Z,2.20
2019-04-13T02:57:12.300Z,2.10
2019-04-13T02:58:12.307Z,2.30
2019-04-13T02:59:12.305Z,2.22
2019-04-13T03:00:12.319Z,2.20
2019-04-13T03:01:12.247Z,2.17
2019-04-13T03:02:12.238Z,2.17
2019-04-13T03:03:12.238Z,2.22
2019-04-13T03:04:12.219Z,2.31
2019-04-13T03:05:12.223Z,2.33
2019-04-13T03:06:12.187Z,2.26
2019-04-13T03:07:12.176Z,2.40
2019-04-13T03:08:12.172Z,2.28
2019-04-13T03:09:12.151Z,2.33
2019-04-13T03:10:12.200Z,2.22
2019-04-13T03:11:12.129Z,2.27
2019-04-13T03:12:12.118Z,2.34
2019-04-13T03:13:12.142Z,2.33
2019-04-13T03:14:12.102Z,2.31
2019-04-13T03:15:12.116Z,2.26
2019-04-13T03:16:12.089Z,2.34
2019-04-13T03:17:12.078Z,2.27
2019-04-13T03:18:12.054Z,2.31
2019-04-13T03:19:12.046Z,2.37
2019-04-13T03:20:12.025Z,2.22
2019-04-13T03:21:12.034Z,2.34
2019-04-13T03:22:12.001Z,2.45
2019-04-13T03:23:11.992Z,2.44
2019-04-13T03:24:11.989Z,2.41
2019-04-13T03:25:11.969Z,2.33
2019-04-13T03:26:11.955Z,2.41
2019-04-13T03:27:11.968Z,2.41
2019-04-13T03:28:11.934Z,2.48
2019-04-13T03:29:11.923Z,2.46
2019-04-13T03:30:11.927Z,2.46
2019-04-13T03:31:11.899Z,2.44
2019-04-13T03:32:11.907Z,2.45
2019-04-13T03:33:11.876Z,2.35
2019-04-13T03:34:11.863Z,2.40
2019-04-13T03:35:11.859Z,2.52
2019-04-13T03:36:11.842Z,2.41
2019-04-13T03:37:11.859Z,2.46
2019-04-13T03:38:11.821Z,2.45
2019-04-13T03:39:11.807Z,2.41
2019-04-13T03:40:11.795Z,2.44
2019-04-13T03:41:11.793Z,2.53
2019-04-13T03:42:11.796Z,2.37
2019-04-13T03:43:11.760Z,2.27
2019-04-13T03:44:11.749Z,2.28
2019-04-13T03:45:11.739Z,2.30
2019-04-13T03:46:11.738Z,2.30
2019-04-13T03:47:11.746Z,2.33
2019-04-13T03:48:11.701Z,2.27
2019-04-13T03:49:11.690Z,2.37
2019-04-13T03:50:11.686Z,2.33
2019-04-13T03:51:11.667Z,2.34
2019-04-13T03:52:11.675Z,2.33
2019-04-13T03:53:11.644Z,2.33
2019-04-13T03:54:11.639Z,2.38
2019-04-13T03:55:11.620Z,2.37
2019-04-13T03:56:11.614Z,2.31
2019-04-13T03:57:11.620Z,2.49
2019-04-13T03:58:11.603Z,2.45
2019-04-13T03:59:11.574Z,2.37
2019-04-13T04:00:11.563Z,2.37
2019-04-13T04:01:11.554Z,2.44
2019-04-13T04:02:11.561Z,2.45
2019-04-13T04:03:11.528Z,2.40
2019-04-13T04:04:11.517Z,2.45
2019-04-13T04:05:11.508Z,2.51
2019-04-13T04:06:12.205Z,2.37
2019-04-13T04:07:11.491Z,2.41
2019-04-13T04:08:11.489Z,2.31
2019-04-13T04:09:11.460Z,2.37
2019-04-13T04:10:11.455Z,2.52
2019-04-13T04:11:11.439Z,2.33
2019-04-13T04:12:11.427Z,2.38
2019-04-13T04:13:11.436Z,2.27
2019-04-13T04:14:11.414Z,2.27
2019-04-13T04:15:11.390Z,2.37
2019-04-13T04:16:11.382Z,2.17
2019-04-13T04:17:11.373Z,2.26
2019-04-13T04:18:11.377Z,2.28
2019-04-13T04:19:11.346Z,2.26
2019-04-13T04:20:11.335Z,2.22
2019-04-13T04:21:11.321Z,2.27
2019-04-13T04:22:11.312Z,2.17
2019-04-13T04:23:11.325Z,2.17
2019-04-13T04:24:11.288Z,2.17
2019-04-13T04:25:11.284Z,2.22
2019-04-13T04:26:11.266Z,2.15
2019-04-13T04:27:11.252Z,2.20
2019-04-13T04:28:11.241Z,2.19
2019-04-13T04:29:11.248Z,2.17
2019-04-13T04:30:11.220Z,2.19
2019-04-13T04:31:11.211Z,2.15
2019-04-13T04:32:11.194Z,2.22
2019-04-13T04:33:11.184Z,2.19
2019-04-13T04:34:11.199Z,2.19
2019-04-13T04:35:11.162Z,2.17
2019-04-13T04:36:23.632Z,2.19
2019-04-13T04:37:11.139Z,2.17
2019-04-13T04:38:11.127Z,2.23
2019-04-13T04:39:11.133Z,2.22
2019-04-13T04:40:11.103Z,2.27
2019-04-13T04:41:11.092Z,2.20
2019-04-13T04:42:11.079Z,2.33
2019-04-13T04:43:11.070Z,2.20
2019-04-13T04:44:11.076Z,2.37
2019-04-13T04:45:11.045Z,2.20
2019-04-13T04:46:11.033Z,2.20
2019-04-13T04:47:11.025Z,2.28
2019-04-13T04:48:11.011Z,2.22
2019-04-13T04:49:11.021Z,2.26
2019-04-13T04:50:10.987Z,2.30
2019-04-13T04:51:11.662Z,2.23
2019-04-13T04:52:10.966Z,2.34
2019-04-13T04:53:10.954Z,2.35
2019-04-13T04:54:10.940Z,2.30
2019-04-13T04:55:10.949Z,2.30
2019-04-13T04:56:10.925Z,2.28
2019-04-13T04:57:10.908Z,2.31
2019-04-13T04:58:10.897Z,2.23
2019-04-13T04:59:10.909Z,2.16
2019-04-13T05:00:10.895Z,2.16
2019-04-13T05:01:10.862Z,2.20
2019-04-13T05:02:10.849Z,2.27
2019-04-13T05:03:10.840Z,2.12
2019-04-13T05:04:10.829Z,2.17
2019-04-13T05:05:10.841Z,2.13
2019-04-13T05:06:10.807Z,2.12
2019-04-13T05:07:10.793Z,2.12
2019-04-13T05:08:14.385Z,2.26
2019-04-13T05:09:10.769Z,2.17
2019-04-13T05:10:10.778Z,2.17
2019-04-13T05:11:10.746Z,2.17
2019-04-13T05:12:10.743Z,2.08
2019-04-13T05:13:10.726Z,1.97
2019-04-13T05:14:10.713Z,2.08
2019-04-13T05:15:10.741Z,2.04
2019-04-13T05:16:10.692Z,2.12
2019-04-13T05:17:10.678Z,2.15
2019-04-13T05:18:10.666Z,2.10
2019-04-13T05:19:10.654Z,2.02
2019-04-13T05:20:10.649Z,2.15
2019-04-13T05:21:10.654Z,2.16
2019-04-13T05:22:10.621Z,2.04
2019-04-13T05:23:10.609Z,2.10
2019-04-13T05:24:10.598Z,2.15
2019-04-13T05:25:10.589Z,2.19
2019-04-13T05:26:10.592Z,2.19
2019-04-13T05:27:10.561Z,2.17
2019-04-13T05:28:10.552Z,2.13
2019-04-13T05:29:10.540Z,2.22
2019-04-13T05:30:10.531Z,2.22
2019-04-13T05:31:10.538Z,2.26
2019-04-13T05:32:10.507Z,2.15
2019-04-13T05:33:10.493Z,2.17
2019-04-13T05:34:10.483Z,2.17
2019-04-13T05:35:10.471Z,2.19
2019-04-13T05:36:10.463Z,2.26
2019-04-13T05:37:10.467Z,2.28
2019-04-13T05:38:10.437Z,2.28
2019-04-13T05:39:10.431Z,2.35
2019-04-13T05:40:10.414Z,2.34
2019-04-13T05:41:10.400Z,2.26
2019-04-13T05:42:10.411Z,2.31
2019-04-13T05:43:10.376Z,2.35
2019-04-13T05:44:10.371Z,2.17
2019-04-13T05:45:10.359Z,2.27
2019-04-13T05:46:10.344Z,2.34
2019-04-13T05:47:10.357Z,2.34
2019-04-13T05:48:10.323Z,2.51
2019-04-13T05:49:10.315Z,2.52
2019-04-13T05:50:10.298Z,2.49
2019-04-13T05:51:10.287Z,2.53
2019-04-13T05:52:10.296Z,2.55
2019-04-13T05:53:10.266Z,2.58
2019-04-13T05:54:10.252Z,2.66
2019-04-13T05:55:10.242Z,2.58
2019-04-13T05:56:10.232Z,2.66
2019-04-13T05:57:10.236Z,2.58
2019-04-13T05:58:12.195Z,2.71
2019-04-13T05:59:10.198Z,2.77
2019-04-13T06:00:10.188Z,2.73
2019-04-13T06:01:10.171Z,2.89
2019-04-13T06:02:10.184Z,2.84
2019-04-13T06:03:10.152Z,2.82
2019-04-13T06:04:10.143Z,2.97
2019-04-13T06:05:10.125Z,2.92
2019-04-13T06:06:10.116Z,3.00
2019-04-13T06:07:10.121Z,3.13
2019-04-13T06:08:10.094Z,3.33
2019-04-13T06:09:12.600Z,3.28
2019-04-13T06:10:10.069Z,3.52
2019-04-13T06:11:10.056Z,3.71
2019-04-13T06:12:10.404Z,3.68
2019-04-13T06:13:10.033Z,3.70
2019-04-13T06:14:10.022Z,3.62
2019-04-13T06:15:10.008Z,3.89
2019-04-13T06:16:09.999Z,4.29
2019-04-13T06:17:10.014Z,4.86
2019-04-13T06:18:20.774Z,5.19
2019-04-13T06:19:10.965Z,5.64
2019-04-13T06:20:09.950Z,5.95
2019-04-13T06:21:09.939Z,6.46
2019-04-13T06:22:09.927Z,6.90
2019-04-13T06:23:09.939Z,7.26
2019-04-13T06:24:09.905Z,7.79
2019-04-13T06:25:10.535Z,8.26
2019-04-13T06:26:09.908Z,8.39
2019-04-13T06:27:11.564Z,8.39
2019-04-13T06:28:09.876Z,8.60
2019-04-13T06:29:09.846Z,9.02
2019-04-13T06:30:09.832Z,9.27
2019-04-13T06:31:09.826Z,9.43
2019-04-13T06:32:09.812Z,9.88
2019-04-13T06:33:09.817Z,9.75
2019-04-13T06:34:11.886Z,10.10
2019-04-13T06:35:09.780Z,10.66
2019-04-13T06:36:09.763Z,10.98
2019-04-13T06:37:12.475Z,11.25
2019-04-13T06:38:09.759Z,11.14
2019-04-13T06:39:09.728Z,11.10
2019-04-13T06:40:09.715Z,11.41
2019-04-13T06:41:11.354Z,11.62
2019-04-13T06:42:09.692Z,11.28
2019-04-13T06:43:09.700Z,11.27
2019-04-13T06:44:09.685Z,11.21
2019-04-13T06:45:13.044Z,11.25
2019-04-13T06:46:09.651Z,11.01
2019-04-13T06:47:09.643Z,10.22
2019-04-13T06:48:09.718Z,9.56
2019-04-13T06:49:09.612Z,8.79
2019-04-13T06:50:09.601Z,8.32
2019-04-13T06:51:09.595Z,7.82
2019-04-13T06:52:09.577Z,7.15
2019-04-13T06:53:09.564Z,6.83
2019-04-13T06:54:09.787Z,6.58
2019-04-13T06:55:09.542Z,6.29
2019-04-13T06:56:09.530Z,6.28
2019-04-13T06:57:09.518Z,6.36
2019-04-13T06:58:09.510Z,6.21
2019-04-13T06:59:09.517Z,6.18
2019-04-13T07:00:11.783Z,5.95
2019-04-13T07:01:09.472Z,5.89
2019-04-13T07:02:09.457Z,5.89
2019-04-13T07:03:09.447Z,6.13
2019-04-13T07:04:09.465Z,6.33
2019-04-13T07:05:09.422Z,6.51
2019-04-13T07:06:09.410Z,6.36
2019-04-13T07:07:09.397Z,6.47
2019-04-13T07:08:09.387Z,6.29
2019-04-13T07:09:09.382Z,5.98
2019-04-13T07:10:09.392Z,5.70
2019-04-13T07:11:09.360Z,5.81
2019-04-13T07:12:09.350Z,5.57
2019-04-13T07:13:09.329Z,5.48
2019-04-13T07:14:09.324Z,5.60
2019-04-13T07:15:09.331Z,5.53
2019-04-13T07:16:10.815Z,5.52
2019-04-13T07:17:09.282Z,5.56
2019-04-13T07:18:09.308Z,5.64
2019-04-13T07:19:09.262Z,5.81
2019-04-13T07:20:09.268Z,6.36
2019-04-13T07:21:09.237Z,7.32
2019-04-13T07:22:09.224Z,8.54
2019-04-13T07:23:09.230Z,9.28
2019-04-13T07:24:09.207Z,9.81
2019-04-13T07:25:10.781Z,10.37
2019-04-13T07:26:11.199Z,9.91
2019-04-13T07:27:09.172Z,9.53
2019-04-13T07:28:09.152Z,9.61
2019-04-13T07:29:09.154Z,9.27
2019-04-13T07:30:09.175Z,8.87
2019-04-13T07:31:09.146Z,8.62
2019-04-13T07:32:09.104Z,8.51
2019-04-13T07:33:09.094Z,8.18
2019-04-13T07:34:09.087Z,8.11
2019-04-13T07:35:09.667Z,8.30
2019-04-13T07:36:10.893Z,8.07
2019-04-13T07:37:12.201Z,8.00
2019-04-13T07:38:09.034Z,7.82
2019-04-13T07:39:09.027Z,7.99
2019-04-13T07:40:09.012Z,8.40
2019-04-13T07:41:09.015Z,8.53
2019-04-13T07:42:08.985Z,8.29
2019-04-13T07:43:10.930Z,8.17
2019-04-13T07:44:08.962Z,8.00
2019-04-13T07:45:08.950Z,7.78
2019-04-13T07:46:08.957Z,7.62
2019-04-13T07:47:08.954Z,7.56
2019-04-13T07:48:08.915Z,7.58
2019-04-13T07:49:08.900Z,7.67
2019-04-13T07:50:08.939Z,8.28
2019-04-13T07:51:08.918Z,9.04
2019-04-13T07:52:08.869Z,10.33
2019-04-13T07:53:08.856Z,11.02
2019-04-13T07:54:08.844Z,11.64
2019-04-13T07:55:08.831Z,12.75
2019-04-13T07:56:08.846Z,12.81
2019-04-13T07:57:08.878Z,12.27
2019-04-13T07:58:10.066Z,12.02
2019-04-13T07:59:09.783Z,12.13
2019-04-13T08:00:08.772Z,11.83
2019-04-13T08:01:08.762Z,11.47
2019-04-13T08:02:08.786Z,11.52
2019-04-13T08:03:08.788Z,10.98
2019-04-13T08:04:08.732Z,10.39
2019-04-13T08:05:08.733Z,9.50
2019-04-13T08:06:08.707Z,8.88
2019-04-13T08:07:08.731Z,8.55
2019-04-13T08:08:08.679Z,8.32
2019-04-13T08:09:08.667Z,8.07
2019-04-13T08:10:08.656Z,7.79
2019-04-13T08:11:08.644Z,7.07
2019-04-13T08:12:08.652Z,6.90
2019-04-13T08:13:08.622Z,6.56
2019-04-13T08:14:08.609Z,6.51
2019-04-13T08:15:08.607Z,6.28
2019-04-13T08:16:08.588Z,6.22
2019-04-13T08:17:08.608Z,6.22
2019-04-13T08:18:08.891Z,6.21
2019-04-13T08:19:12.383Z,6.22
2019-04-13T08:20:08.538Z,6.36
2019-04-13T08:21:08.530Z,6.84
2019-04-13T08:22:08.544Z,7.50
2019-04-13T08:23:08.524Z,8.08
2019-04-13T08:24:08.491Z,7.97
2019-04-13T08:25:08.479Z,7.69
2019-04-13T08:26:09.314Z,7.56
2019-04-13T08:27:08.456Z,7.17
2019-04-13T08:28:08.464Z,6.97
2019-04-13T08:29:08.434Z,6.81
2019-04-13T08:30:08.459Z,6.71
2019-04-13T08:31:08.411Z,6.44
2019-04-13T08:32:08.399Z,6.40
2019-04-13T08:33:08.415Z,6.13
2019-04-13T08:34:08.386Z,6.01
2019-04-13T08:35:08.366Z,5.74
2019-04-13T08:36:08.353Z,5.60
2019-04-13T08:37:08.369Z,5.55
2019-04-13T08:38:13.141Z,5.45
2019-04-13T08:39:10.915Z,5.30
2019-04-13T08:40:09.592Z,5.17
2019-04-13T08:41:11.226Z,5.22
2019-04-13T08:42:19.328Z,5.13
2019-04-13T08:43:09.308Z,4.94
2019-04-13T08:44:08.280Z,4.86
2019-04-13T08:45:12.378Z,4.86
2019-04-13T08:46:09.233Z,4.95
2019-04-13T08:47:08.223Z,5.07
2019-04-13T08:48:08.227Z,5.22
2019-04-13T08:49:08.219Z,5.17
2019-04-13T08:50:08.189Z,5.32
2019-04-13T08:51:08.176Z,5.31
2019-04-13T08:52:08.162Z,5.37
2019-04-13T08:53:08.154Z,5.46
2019-04-13T08:54:08.212Z,5.56
2019-04-13T08:55:08.132Z,5.64
2019-04-13T08:56:08.120Z,5.64
2019-04-13T08:57:08.109Z,5.70
2019-04-13T08:58:08.092Z,5.68
2019-04-13T08:59:08.112Z,5.57
2019-04-13T09:00:08.083Z,5.53
2019-04-13T09:01:08.059Z,5.53
2019-04-13T09:02:08.048Z,5.50
2019-04-13T09:03:08.036Z,5.59
2019-04-13T09:04:08.024Z,5.63
2019-04-13T09:05:08.032Z,5.63
2019-04-13T09:06:08.001Z,5.70
2019-04-13T09:07:07.993Z,5.60
2019-04-13T09:08:12.617Z,5.66
2019-04-13T09:09:08.965Z,5.64
2019-04-13T09:10:09.346Z,5.73
2019-04-13T09:11:08.484Z,5.57
2019-04-13T09:12:10.774Z,5.56
2019-04-13T09:13:08.891Z,5.63
2019-04-13T09:14:12.684Z,5.57
2019-04-13T09:15:08.920Z,5.53
2019-04-13T09:16:08.631Z,5.56
2019-04-13T09:17:07.871Z,5.73
2019-04-13T09:18:07.862Z,5.81
2019-04-13T09:19:12.088Z,6.03
2019-04-13T09:20:08.927Z,6.13
2019-04-13T09:21:09.479Z,6.25
2019-04-13T09:22:09.083Z,6.25
2019-04-13T09:23:08.853Z,6.10
2019-04-13T09:24:07.793Z,6.07
2019-04-13T09:25:07.776Z,6.16
2019-04-13T09:26:07.830Z,6.06
2019-04-13T09:27:08.196Z,5.85
2019-04-13T09:28:11.641Z,5.89
2019-04-13T09:29:07.729Z,5.73
2019-04-13T09:30:07.720Z,5.89
2019-04-13T09:31:09.491Z,5.89
2019-04-13T09:32:07.693Z,6.10
2019-04-13T09:33:07.682Z,6.03
2019-04-13T09:34:11.802Z,6.06
2019-04-13T09:35:08.656Z,5.83
2019-04-13T09:36:07.668Z,5.83
2019-04-13T09:37:07.637Z,5.83
2019-04-13T09:38:07.626Z,5.82
2019-04-13T09:39:07.613Z,5.81
2019-04-13T09:40:07.602Z,5.68
2019-04-13T09:41:07.617Z,5.60
2019-04-13T09:42:10.265Z,5.52
2019-04-13T09:43:07.568Z,5.63
2019-04-13T09:44:07.554Z,5.70
2019-04-13T09:45:07.540Z,5.56
2019-04-13T09:46:07.554Z,5.63
2019-04-13T09:47:08.793Z,5.71
2019-04-13T09:48:07.507Z,5.93
2019-04-13T09:49:07.495Z,6.06
2019-04-13T09:50:07.484Z,6.41
2019-04-13T09:51:07.491Z,6.62
2019-04-13T09:52:07.460Z,6.84
2019-04-13T09:53:07.450Z,7.01
2019-04-13T09:54:07.438Z,7.53
2019-04-13T09:55:07.428Z,7.56
2019-04-13T09:56:07.433Z,7.55
2019-04-13T09:57:07.401Z,7.66
2019-04-13T09:58:07.388Z,7.90
2019-04-13T09:59:10.679Z,8.14
2019-04-13T10:00:07.368Z,8.29
2019-04-13T10:01:07.374Z,8.48
2019-04-13T10:02:07.343Z,9.12
2019-04-13T10:03:08.364Z,10.56
2019-04-13T10:04:07.319Z,12.02
2019-04-13T10:05:07.309Z,13.17
2019-04-13T10:06:07.315Z,14.13
2019-04-13T10:07:09.134Z,14.91
2019-04-13T10:08:07.282Z,15.42
2019-04-13T10:09:08.572Z,15.43
2019-04-13T10:10:07.253Z,16.30
2019-04-13T10:11:07.254Z,16.56
2019-04-13T10:12:07.226Z,16.07
2019-04-13T10:13:07.216Z,15.21
2019-04-13T10:14:07.203Z,14.44
2019-04-13T10:15:07.200Z,14.38
2019-04-13T10:16:07.220Z,13.43
2019-04-13T10:17:07.168Z,12.48
2019-04-13T10:18:07.157Z,11.59
2019-04-13T10:19:07.142Z,10.98
2019-04-13T10:20:10.472Z,10.63
2019-04-13T10:21:07.127Z,10.59
2019-04-13T10:22:07.128Z,11.67
2019-04-13T10:23:07.099Z,11.90
2019-04-13T10:24:07.085Z,11.80
2019-04-13T10:25:07.072Z,11.56
2019-04-13T10:26:11.282Z,11.36
2019-04-13T10:27:08.067Z,11.35
2019-04-13T10:28:07.042Z,12.08
2019-04-13T10:29:08.147Z,12.12
2019-04-13T10:30:07.014Z,12.71
2019-04-13T10:31:07.001Z,12.16
2019-04-13T10:32:07.010Z,11.49
2019-04-13T10:33:06.979Z,11.07
2019-04-13T10:34:06.970Z,10.74
2019-04-13T10:35:06.955Z,10.46
2019-04-13T10:36:13.989Z,10.09
2019-04-13T10:37:06.952Z,10.07
2019-04-13T10:38:06.919Z,9.93
2019-04-13T10:39:08.541Z,9.71
2019-04-13T10:40:08.485Z,9.56
2019-04-13T10:41:09.410Z,9.49
2019-04-13T10:42:06.892Z,9.40
2019-04-13T10:43:06.859Z,9.49
2019-04-13T10:44:08.102Z,10.74
2019-04-13T10:45:06.842Z,12.38
2019-04-13T10:46:06.827Z,13.30
2019-04-13T10:47:06.834Z,13.15
2019-04-13T10:48:06.806Z,12.51
2019-04-13T10:49:06.791Z,11.75
2019-04-13T10:50:07.855Z,11.39
2019-04-13T10:51:06.771Z,11.06
2019-04-13T10:52:06.774Z,11.25
2019-04-13T10:53:06.743Z,12.51
2019-04-13T10:54:06.731Z,12.02
2019-04-13T10:55:06.723Z,11.68
2019-04-13T10:56:06.709Z,11.61
2019-04-13T10:57:06.715Z,11.02
2019-04-13T10:58:06.684Z,10.66
2019-04-13T10:59:06.673Z,10.74
2019-04-13T11:00:06.661Z,12.45
2019-04-13T11:01:06.647Z,13.87
2019-04-13T11:02:06.658Z,14.74
2019-04-13T11:03:06.623Z,15.30
2019-04-13T11:04:06.613Z,14.21
2019-04-13T11:05:06.614Z,12.88
2019-04-13T11:06:08.799Z,12.26
2019-04-13T11:07:06.601Z,12.11
2019-04-13T11:08:06.568Z,13.38
2019-04-13T11:09:06.555Z,14.60
2019-04-13T11:10:06.540Z,15.81
2019-04-13T11:11:06.529Z,16.92
2019-04-13T11:12:06.519Z,17.29
2019-04-13T11:13:06.549Z,17.44
2019-04-13T11:14:06.495Z,17.71
2019-04-13T11:15:06.484Z,17.40
2019-04-13T11:16:06.473Z,17.78
2019-04-13T11:17:06.481Z,18.46
2019-04-13T11:18:06.467Z,17.91
2019-04-13T11:19:07.689Z,16.26
2019-04-13T11:20:06.423Z,15.79
2019-04-13T11:21:06.412Z,15.23
2019-04-13T11:22:06.405Z,14.62
2019-04-13T11:23:06.414Z,13.62
2019-04-13T11:24:06.376Z,13.03
2019-04-13T11:25:06.365Z,12.82
2019-04-13T11:26:06.355Z,12.85
2019-04-13T11:27:06.344Z,14.09
2019-04-13T11:28:07.654Z,15.35
2019-04-13T11:29:06.340Z,16.00
2019-04-13T11:30:06.307Z,16.14
2019-04-13T11:31:06.296Z,15.33
2019-04-13T11:32:06.283Z,14.57
2019-04-13T11:33:06.275Z,14.06
2019-04-13T11:34:06.279Z,13.76
2019-04-13T11:35:06.248Z,13.38
2019-04-13T11:36:07.504Z,13.02
2019-04-13T11:37:06.277Z,13.27
2019-04-13T11:38:06.214Z,13.12
2019-04-13T11:39:06.221Z,13.03
2019-04-13T11:40:06.188Z,13.24
2019-04-13T11:41:06.179Z,14.69
2019-04-13T11:42:06.165Z,15.79
2019-04-13T11:43:08.657Z,16.49
2019-04-13T11:44:06.160Z,17.47
2019-04-13T11:45:06.134Z,18.25
2019-04-13T11:46:06.119Z,18.55
2019-04-13T11:47:06.109Z,17.73
2019-04-13T11:48:06.097Z,16.45
2019-04-13T11:49:06.131Z,15.48
2019-04-13T11:50:06.074Z,14.75
2019-04-13T11:51:06.062Z,14.21
2019-04-13T11:52:06.050Z,13.56
2019-04-13T11:53:06.037Z,13.14
2019-04-13T11:54:06.029Z,12.67
2019-04-13T11:55:06.047Z,12.38
2019-04-13T11:56:06.052Z,11.89
2019-04-13T11:57:05.992Z,11.71
2019-04-13T11:58:05.980Z,11.64
2019-04-13T11:59:05.971Z,11.85
2019-04-13T12:00:05.972Z,11.57
2019-04-13T12:01:07.049Z,11.27
2019-04-13T12:02:05.940Z,10.70
2019-04-13T12:03:05.918Z,10.18
2019-04-13T12:04:08.411Z,9.46
2019-04-13T12:05:05.916Z,8.60
2019-04-13T12:06:06.327Z,7.75
2019-04-13T12:07:05.871Z,7.31
2019-04-13T12:08:05.860Z,7.07
2019-04-13T12:09:05.849Z,6.77
2019-04-13T12:10:05.856Z,6.58
2019-04-13T12:11:05.827Z,6.47
2019-04-13T12:12:05.813Z,6.25
2019-04-13T12:13:05.804Z,6.21
2019-04-13T12:14:05.792Z,6.25
2019-04-13T12:15:07.239Z,6.29
2019-04-13T12:16:05.769Z,6.28
2019-04-13T12:17:05.757Z,6.11
2019-04-13T12:18:05.749Z,5.82
2019-04-13T12:19:05.744Z,5.96
2019-04-13T12:20:05.719Z,5.82
2019-04-13T12:21:05.726Z,5.91
2019-04-13T12:22:05.695Z,6.03
2019-04-13T12:23:05.689Z,6.33
2019-04-13T12:24:05.676Z,6.54
2019-04-13T12:25:05.663Z,6.84
2019-04-13T12:26:07.158Z,7.07
2019-04-13T12:27:05.638Z,7.27
2019-04-13T12:28:05.629Z,7.47
2019-04-13T12:29:05.616Z,7.52
2019-04-13T12:30:10.373Z,7.84
2019-04-13T12:31:06.612Z,8.00
2019-04-13T12:32:05.582Z,8.48
2019-04-13T12:33:05.581Z,8.81
2019-04-13T12:34:05.560Z,8.91
2019-04-13T12:35:08.318Z,8.94
2019-04-13T12:36:05.567Z,9.25
2019-04-13T12:37:05.544Z,9.50
2019-04-13T12:38:09.649Z,9.83
2019-04-13T12:39:07.538Z,9.86
2019-04-13T12:40:05.488Z,9.63
2019-04-13T12:41:05.477Z,9.48
2019-04-13T12:42:06.099Z,9.42
2019-04-13T12:43:05.453Z,9.10
2019-04-13T12:44:05.438Z,9.01
2019-04-13T12:45:05.427Z,8.96
2019-04-13T12:46:05.416Z,9.01
2019-04-13T12:47:05.424Z,8.99
2019-04-13T12:48:05.394Z,9.01
2019-04-13T12:49:05.379Z,9.09
2019-04-13T12:50:05.369Z,8.81
2019-04-13T12:51:05.355Z,8.72
2019-04-13T12:52:05.366Z,8.47
2019-04-13T12:53:05.335Z,8.29
2019-04-13T12:54:05.624Z,8.07
2019-04-13T12:55:05.787Z,7.75
2019-04-13T12:56:05.311Z,7.50
2019-04-13T12:57:05.331Z,7.47
2019-04-13T12:58:05.301Z,7.02
2019-04-13T12:59:05.265Z,6.76
2019-04-13T13:00:07.978Z,6.50
2019-04-13T13:01:05.241Z,6.29
2019-04-13T13:02:05.226Z,6.14
2019-04-13T13:03:09.033Z,5.91
2019-04-13T13:04:05.557Z,5.82
2019-04-13T13:05:05.197Z,5.71
2019-04-13T13:06:05.184Z,5.55
2019-04-13T13:07:06.681Z,5.50
2019-04-13T13:08:08.131Z,5.37
2019-04-13T13:09:09.400Z,5.20
2019-04-13T13:10:15.193Z,5.16
2019-04-13T13:11:06.125Z,5.20
2019-04-13T13:12:06.539Z,5.32
2019-04-13T13:13:05.122Z,5.17